sensor_id;sensor_type;location;lat;lon;timestamp;P1;durP1;ratioP1;P2;durP2;ratioP2
68608;SDS011;55581;46.718;7.690;2023-04-07T00:02:13;6.63;;;1.77;;
68608;SDS011;55581;46.718;7.690;2023-04-07T00:04:38;3.80;;;1.10;;
68608;SDS011;55581;46.718;7.690;2023-04-07T00:07:03;3.93;;;1.17;;
68608;SDS011;55581;46.718;7.690;2023-04-07T00:09:29;4.97;;;1.50;;
68608;SDS011;55581;46.718;7.690;2023-04-07T00:11:57;5.17;;;1.63;;
68608;SDS011;55581;46.718;7.690;2023-04-07T00:14:22;5.93;;;1.50;;
68608;SDS011;55581;46.718;7.690;2023-04-07T00:16:47;4.70;;;1.30;;
68608;SDS011;55581;46.718;7.690;2023-04-07T00:19:13;4.17;;;1.37;;
68608;SDS011;55581;46.718;7.690;2023-04-07T00:21:38;4.83;;;1.57;;
68608;SDS011;55581;46.718;7.690;2023-04-07T00:24:04;5.03;;;1.70;;
68608;SDS011;55581;46.718;7.690;2023-04-07T00:26:29;4.80;;;1.63;;
68608;SDS011;55581;46.718;7.690;2023-04-07T00:28:57;5.78;;;2.30;;
68608;SDS011;55581;46.718;7.690;2023-04-07T00:31:23;5.68;;;1.88;;
68608;SDS011;55581;46.718;7.690;2023-04-07T00:33:49;5.80;;;2.05;;
68608;SDS011;55581;46.718;7.690;2023-04-07T00:36:15;6.00;;;2.00;;
68608;SDS011;55581;46.718;7.690;2023-04-07T00:38:43;6.03;;;1.73;;
68608;SDS011;55581;46.718;7.690;2023-04-07T00:41:08;6.55;;;2.22;;
68608;SDS011;55581;46.718;7.690;2023-04-07T00:43:34;5.67;;;1.80;;
68608;SDS011;55581;46.718;7.690;2023-04-07T00:45:59;5.95;;;2.20;;
68608;SDS011;55581;46.718;7.690;2023-04-07T00:48:25;5.97;;;1.70;;
68608;SDS011;55581;46.718;7.690;2023-04-07T00:50:53;5.38;;;1.60;;
68608;SDS011;55581;46.718;7.690;2023-04-07T00:53:18;4.77;;;1.80;;
68608;SDS011;55581;46.718;7.690;2023-04-07T00:55:44;5.32;;;1.80;;
68608;SDS011;55581;46.718;7.690;2023-04-07T00:58:09;7.57;;;1.90;;
68608;SDS011;55581;46.718;7.690;2023-04-07T01:01:12;4.85;;;1.38;;
68608;SDS011;55581;46.718;7.690;2023-04-07T01:03:45;5.28;;;1.67;;
68608;SDS011;55581;46.718;7.690;2023-04-07T01:06:16;5.03;;;1.20;;
68608;SDS011;55581;46.718;7.690;2023-04-07T01:11:36;5.65;;;1.80;;
68608;SDS011;55581;46.718;7.690;2023-04-07T01:14:08;4.47;;;1.30;;
68608;SDS011;55581;46.718;7.690;2023-04-07T01:19:33;4.40;;;1.63;;
68608;SDS011;55581;46.718;7.690;2023-04-07T01:22:07;4.70;;;1.42;;
68608;SDS011;55581;46.718;7.690;2023-04-07T01:27:24;6.45;;;2.22;;
68608;SDS011;55581;46.718;7.690;2023-04-07T01:29:53;6.78;;;2.22;;
68608;SDS011;55581;46.718;7.690;2023-04-07T01:32:20;4.00;;;1.33;;
68608;SDS011;55581;46.718;7.690;2023-04-07T01:34:49;5.28;;;1.38;;
68608;SDS011;55581;46.718;7.690;2023-04-07T01:37:16;4.97;;;1.45;;
68608;SDS011;55581;46.718;7.690;2023-04-07T01:39:42;6.18;;;1.90;;
68608;SDS011;55581;46.718;7.690;2023-04-07T01:42:08;4.17;;;1.30;;
68608;SDS011;55581;46.718;7.690;2023-04-07T01:44:40;5.53;;;1.63;;
68608;SDS011;55581;46.718;7.690;2023-04-07T01:47:07;5.65;;;2.00;;
68608;SDS011;55581;46.718;7.690;2023-04-07T01:49:32;5.18;;;1.67;;
68608;SDS011;55581;46.718;7.690;2023-04-07T01:51:59;6.03;;;1.57;;
68608;SDS011;55581;46.718;7.690;2023-04-07T01:54:26;8.43;;;1.88;;
68608;SDS011;55581;46.718;7.690;2023-04-07T01:56:52;5.85;;;1.45;;
68608;SDS011;55581;46.718;7.690;2023-04-07T01:59:20;4.83;;;1.23;;
68608;SDS011;55581;46.718;7.690;2023-04-07T02:01:46;4.82;;;1.40;;
68608;SDS011;55581;46.718;7.690;2023-04-07T02:06:53;5.30;;;1.30;;
68608;SDS011;55581;46.718;7.690;2023-04-07T02:09:23;4.00;;;1.23;;
68608;SDS011;55581;46.718;7.690;2023-04-07T02:11:53;4.75;;;1.77;;
68608;SDS011;55581;46.718;7.690;2023-04-07T02:14:22;4.43;;;1.23;;
68608;SDS011;55581;46.718;7.690;2023-04-07T02:16:48;5.15;;;1.70;;
68608;SDS011;55581;46.718;7.690;2023-04-07T02:19:15;4.75;;;1.52;;
68608;SDS011;55581;46.718;7.690;2023-04-07T02:21:40;6.30;;;1.43;;
68608;SDS011;55581;46.718;7.690;2023-04-07T02:24:07;5.40;;;1.58;;
68608;SDS011;55581;46.718;7.690;2023-04-07T02:26:35;4.77;;;1.00;;
68608;SDS011;55581;46.718;7.690;2023-04-07T02:29:03;4.97;;;1.13;;
68608;SDS011;55581;46.718;7.690;2023-04-07T02:31:29;4.83;;;1.40;;
68608;SDS011;55581;46.718;7.690;2023-04-07T02:33:55;5.50;;;1.60;;
68608;SDS011;55581;46.718;7.690;2023-04-07T02:36:20;4.00;;;1.30;;
68608;SDS011;55581;46.718;7.690;2023-04-07T02:38:46;5.03;;;1.30;;
68608;SDS011;55581;46.718;7.690;2023-04-07T02:41:14;5.13;;;1.43;;
68608;SDS011;55581;46.718;7.690;2023-04-07T02:43:39;4.32;;;1.27;;
68608;SDS011;55581;46.718;7.690;2023-04-07T02:46:05;4.70;;;1.23;;
68608;SDS011;55581;46.718;7.690;2023-04-07T02:48:30;4.97;;;1.50;;
68608;SDS011;55581;46.718;7.690;2023-04-07T02:50:55;5.07;;;1.90;;
68608;SDS011;55581;46.718;7.690;2023-04-07T02:53:21;6.40;;;1.92;;
68608;SDS011;55581;46.718;7.690;2023-04-07T02:55:46;6.13;;;1.40;;
68608;SDS011;55581;46.718;7.690;2023-04-07T02:58:12;6.10;;;1.40;;
68608;SDS011;55581;46.718;7.690;2023-04-07T03:00:37;4.03;;;1.30;;
68608;SDS011;55581;46.718;7.690;2023-04-07T03:03:05;6.17;;;1.10;;
68608;SDS011;55581;46.718;7.690;2023-04-07T03:05:31;5.50;;;1.05;;
68608;SDS011;55581;46.718;7.690;2023-04-07T03:07:56;4.10;;;1.23;;
68608;SDS011;55581;46.718;7.690;2023-04-07T03:10:21;3.97;;;1.10;;
68608;SDS011;55581;46.718;7.690;2023-04-07T03:12:47;4.60;;;1.20;;
68608;SDS011;55581;46.718;7.690;2023-04-07T03:15:12;3.90;;;1.20;;
68608;SDS011;55581;46.718;7.690;2023-04-07T03:17:38;4.15;;;0.85;;
68608;SDS011;55581;46.718;7.690;2023-04-07T03:20:03;4.50;;;1.30;;
68608;SDS011;55581;46.718;7.690;2023-04-07T03:22:32;4.20;;;1.20;;
68608;SDS011;55581;46.718;7.690;2023-04-07T03:25:01;4.23;;;1.37;;
68608;SDS011;55581;46.718;7.690;2023-04-07T03:27:26;4.05;;;0.82;;
68608;SDS011;55581;46.718;7.690;2023-04-07T03:29:52;4.67;;;0.90;;
68608;SDS011;55581;46.718;7.690;2023-04-07T03:32:17;4.75;;;1.88;;
68608;SDS011;55581;46.718;7.690;2023-04-07T03:34:43;6.37;;;1.27;;
68608;SDS011;55581;46.718;7.690;2023-04-07T03:37:08;4.97;;;1.37;;
68608;SDS011;55581;46.718;7.690;2023-04-07T03:39:34;3.57;;;1.17;;
68608;SDS011;55581;46.718;7.690;2023-04-07T03:42:01;4.22;;;1.17;;
68608;SDS011;55581;46.718;7.690;2023-04-07T03:44:27;3.58;;;1.00;;
68608;SDS011;55581;46.718;7.690;2023-04-07T03:46:53;4.50;;;1.00;;
68608;SDS011;55581;46.718;7.690;2023-04-07T03:49:18;3.08;;;0.90;;
68608;SDS011;55581;46.718;7.690;2023-04-07T03:51:44;4.43;;;1.47;;
68608;SDS011;55581;46.718;7.690;2023-04-07T03:54:12;3.83;;;0.77;;
68608;SDS011;55581;46.718;7.690;2023-04-07T03:56:38;6.40;;;1.10;;
68608;SDS011;55581;46.718;7.690;2023-04-07T03:59:03;4.90;;;1.00;;
68608;SDS011;55581;46.718;7.690;2023-04-07T04:01:29;3.70;;;0.90;;
68608;SDS011;55581;46.718;7.690;2023-04-07T04:03:55;4.05;;;1.05;;
68608;SDS011;55581;46.718;7.690;2023-04-07T04:06:20;4.53;;;0.90;;
68608;SDS011;55581;46.718;7.690;2023-04-07T04:08:46;4.40;;;1.40;;
68608;SDS011;55581;46.718;7.690;2023-04-07T04:11:11;5.20;;;1.13;;
68608;SDS011;55581;46.718;7.690;2023-04-07T04:13:36;3.33;;;0.88;;
68608;SDS011;55581;46.718;7.690;2023-04-07T04:16:02;4.93;;;1.00;;
68608;SDS011;55581;46.718;7.690;2023-04-07T04:18:28;3.60;;;0.70;;
68608;SDS011;55581;46.718;7.690;2023-04-07T04:20:53;3.23;;;1.00;;
68608;SDS011;55581;46.718;7.690;2023-04-07T04:23:19;4.03;;;1.17;;
68608;SDS011;55581;46.718;7.690;2023-04-07T04:25:44;4.00;;;1.30;;
68608;SDS011;55581;46.718;7.690;2023-04-07T04:28:10;4.77;;;1.17;;
68608;SDS011;55581;46.718;7.690;2023-04-07T04:30:35;3.77;;;1.27;;
68608;SDS011;55581;46.718;7.690;2023-04-07T04:33:01;5.00;;;1.20;;
68608;SDS011;55581;46.718;7.690;2023-04-07T04:35:27;3.47;;;0.98;;
68608;SDS011;55581;46.718;7.690;2023-04-07T04:37:52;6.73;;;1.30;;
68608;SDS011;55581;46.718;7.690;2023-04-07T04:40:18;5.18;;;1.20;;
68608;SDS011;55581;46.718;7.690;2023-04-07T04:42:44;5.83;;;1.20;;
68608;SDS011;55581;46.718;7.690;2023-04-07T04:45:10;4.88;;;1.23;;
68608;SDS011;55581;46.718;7.690;2023-04-07T04:47:38;5.13;;;1.60;;
68608;SDS011;55581;46.718;7.690;2023-04-07T04:50:05;4.45;;;1.00;;
68608;SDS011;55581;46.718;7.690;2023-04-07T04:52:31;4.65;;;1.70;;
68608;SDS011;55581;46.718;7.690;2023-04-07T04:54:57;4.57;;;1.27;;
68608;SDS011;55581;46.718;7.690;2023-04-07T04:57:22;4.33;;;1.30;;
68608;SDS011;55581;46.718;7.690;2023-04-07T04:59:47;3.07;;;0.93;;
68608;SDS011;55581;46.718;7.690;2023-04-07T05:02:13;4.77;;;1.00;;
68608;SDS011;55581;46.718;7.690;2023-04-07T05:04:38;3.70;;;1.33;;
68608;SDS011;55581;46.718;7.690;2023-04-07T05:07:07;5.30;;;1.23;;
68608;SDS011;55581;46.718;7.690;2023-04-07T05:09:32;6.13;;;1.47;;
68608;SDS011;55581;46.718;7.690;2023-04-07T05:11:57;3.58;;;1.02;;
68608;SDS011;55581;46.718;7.690;2023-04-07T05:14:23;4.77;;;1.30;;
68608;SDS011;55581;46.718;7.690;2023-04-07T05:16:51;4.17;;;2.07;;
68608;SDS011;55581;46.718;7.690;2023-04-07T05:19:18;5.30;;;1.40;;
68608;SDS011;55581;46.718;7.690;2023-04-07T05:21:43;4.27;;;1.20;;
68608;SDS011;55581;46.718;7.690;2023-04-07T05:24:11;4.43;;;1.10;;
68608;SDS011;55581;46.718;7.690;2023-04-07T05:26:36;4.20;;;1.00;;
68608;SDS011;55581;46.718;7.690;2023-04-07T05:29:02;3.87;;;0.97;;
68608;SDS011;55581;46.718;7.690;2023-04-07T05:31:27;5.00;;;1.60;;
68608;SDS011;55581;46.718;7.690;2023-04-07T05:33:52;4.80;;;1.40;;
68608;SDS011;55581;46.718;7.690;2023-04-07T05:36:18;4.97;;;1.40;;
68608;SDS011;55581;46.718;7.690;2023-04-07T05:38:43;5.97;;;2.00;;
68608;SDS011;55581;46.718;7.690;2023-04-07T05:41:09;5.80;;;2.30;;
68608;SDS011;55581;46.718;7.690;2023-04-07T05:43:37;5.88;;;1.85;;
68608;SDS011;55581;46.718;7.690;2023-04-07T05:46:02;5.10;;;1.87;;
68608;SDS011;55581;46.718;7.690;2023-04-07T05:48:28;6.00;;;2.23;;
68608;SDS011;55581;46.718;7.690;2023-04-07T05:50:53;7.07;;;2.30;;
68608;SDS011;55581;46.718;7.690;2023-04-07T05:53:18;5.70;;;1.73;;
68608;SDS011;55581;46.718;7.690;2023-04-07T05:55:44;6.40;;;1.80;;
68608;SDS011;55581;46.718;7.690;2023-04-07T05:58:09;6.53;;;2.30;;
68608;SDS011;55581;46.718;7.690;2023-04-07T06:00:37;6.57;;;2.28;;
68608;SDS011;55581;46.718;7.690;2023-04-07T06:03:04;6.40;;;2.05;;
68608;SDS011;55581;46.718;7.690;2023-04-07T06:05:29;5.17;;;1.77;;
68608;SDS011;55581;46.718;7.690;2023-04-07T06:07:55;5.65;;;2.00;;
68608;SDS011;55581;46.718;7.690;2023-04-07T06:10:22;8.00;;;1.90;;
68608;SDS011;55581;46.718;7.690;2023-04-07T06:12:48;6.30;;;2.10;;
68608;SDS011;55581;46.718;7.690;2023-04-07T06:15:16;9.23;;;3.97;;
68608;SDS011;55581;46.718;7.690;2023-04-07T06:17:41;5.83;;;2.17;;
68608;SDS011;55581;46.718;7.690;2023-04-07T06:20:09;6.43;;;2.25;;
68608;SDS011;55581;46.718;7.690;2023-04-07T06:22:35;5.63;;;2.07;;
68608;SDS011;55581;46.718;7.690;2023-04-07T06:25:01;5.95;;;1.63;;
68608;SDS011;55581;46.718;7.690;2023-04-07T06:27:26;4.53;;;1.57;;
68608;SDS011;55581;46.718;7.690;2023-04-07T06:29:52;5.70;;;1.47;;
68608;SDS011;55581;46.718;7.690;2023-04-07T06:32:17;4.18;;;1.38;;
68608;SDS011;55581;46.718;7.690;2023-04-07T06:34:43;4.70;;;1.77;;
68608;SDS011;55581;46.718;7.690;2023-04-07T06:37:10;4.27;;;1.30;;
68608;SDS011;55581;46.718;7.690;2023-04-07T06:39:36;4.22;;;1.13;;
68608;SDS011;55581;46.718;7.690;2023-04-07T06:42:02;4.78;;;1.50;;
68608;SDS011;55581;46.718;7.690;2023-04-07T06:44:27;5.10;;;1.87;;
68608;SDS011;55581;46.718;7.690;2023-04-07T06:46:55;5.37;;;1.70;;
68608;SDS011;55581;46.718;7.690;2023-04-07T06:49:21;8.30;;;2.22;;
68608;SDS011;55581;46.718;7.690;2023-04-07T06:51:46;6.43;;;1.83;;
68608;SDS011;55581;46.718;7.690;2023-04-07T06:54:12;4.27;;;1.87;;
68608;SDS011;55581;46.718;7.690;2023-04-07T06:56:40;6.88;;;1.77;;
68608;SDS011;55581;46.718;7.690;2023-04-07T06:59:06;7.32;;;2.55;;
68608;SDS011;55581;46.718;7.690;2023-04-07T07:01:32;6.47;;;2.63;;
68608;SDS011;55581;46.718;7.690;2023-04-07T07:03:58;9.23;;;2.40;;
68608;SDS011;55581;46.718;7.690;2023-04-07T07:06:25;6.10;;;2.50;;
68608;SDS011;55581;46.718;7.690;2023-04-07T07:08:51;5.68;;;2.22;;
68608;SDS011;55581;46.718;7.690;2023-04-07T07:11:17;5.83;;;1.93;;
68608;SDS011;55581;46.718;7.690;2023-04-07T07:13:42;5.50;;;2.13;;
68608;SDS011;55581;46.718;7.690;2023-04-07T07:16:09;7.60;;;2.50;;
68608;SDS011;55581;46.718;7.690;2023-04-07T07:18:36;8.50;;;2.65;;
68608;SDS011;55581;46.718;7.690;2023-04-07T07:21:04;7.03;;;2.25;;
68608;SDS011;55581;46.718;7.690;2023-04-07T07:23:30;6.33;;;2.70;;
68608;SDS011;55581;46.718;7.690;2023-04-07T07:25:57;8.67;;;3.50;;
68608;SDS011;55581;46.718;7.690;2023-04-07T07:28:23;7.63;;;2.42;;
68608;SDS011;55581;46.718;7.690;2023-04-07T07:30:52;7.15;;;3.05;;
68608;SDS011;55581;46.718;7.690;2023-04-07T07:33:18;5.77;;;2.23;;
68608;SDS011;55581;46.718;7.690;2023-04-07T07:35:47;6.18;;;2.25;;
68608;SDS011;55581;46.718;7.690;2023-04-07T07:38:12;5.73;;;2.20;;
68608;SDS011;55581;46.718;7.690;2023-04-07T07:40:39;5.38;;;1.75;;
68608;SDS011;55581;46.718;7.690;2023-04-07T07:43:05;5.88;;;1.95;;
68608;SDS011;55581;46.718;7.690;2023-04-07T07:45:30;5.37;;;2.13;;
68608;SDS011;55581;46.718;7.690;2023-04-07T07:47:56;4.97;;;1.93;;
68608;SDS011;55581;46.718;7.690;2023-04-07T07:50:21;4.75;;;1.80;;
68608;SDS011;55581;46.718;7.690;2023-04-07T07:52:51;4.70;;;2.00;;
68608;SDS011;55581;46.718;7.690;2023-04-07T07:55:16;4.87;;;1.87;;
68608;SDS011;55581;46.718;7.690;2023-04-07T07:57:42;5.23;;;1.93;;
68608;SDS011;55581;46.718;7.690;2023-04-07T08:00:08;5.47;;;2.00;;
68608;SDS011;55581;46.718;7.690;2023-04-07T08:02:34;4.75;;;1.10;;
68608;SDS011;55581;46.718;7.690;2023-04-07T08:05:00;5.28;;;1.98;;
68608;SDS011;55581;46.718;7.690;2023-04-07T08:07:29;5.00;;;1.70;;
68608;SDS011;55581;46.718;7.690;2023-04-07T08:09:54;4.80;;;1.70;;
68608;SDS011;55581;46.718;7.690;2023-04-07T08:12:21;3.67;;;1.23;;
68608;SDS011;55581;46.718;7.690;2023-04-07T08:14:51;4.97;;;1.83;;
68608;SDS011;55581;46.718;7.690;2023-04-07T08:17:16;4.93;;;1.47;;
68608;SDS011;55581;46.718;7.690;2023-04-07T08:19:45;4.53;;;1.40;;
68608;SDS011;55581;46.718;7.690;2023-04-07T08:22:10;5.57;;;1.70;;
68608;SDS011;55581;46.718;7.690;2023-04-07T08:24:36;4.10;;;1.55;;
68608;SDS011;55581;46.718;7.690;2023-04-07T08:27:01;4.90;;;1.30;;
68608;SDS011;55581;46.718;7.690;2023-04-07T08:29:27;3.90;;;1.30;;
68608;SDS011;55581;46.718;7.690;2023-04-07T08:31:52;5.77;;;1.40;;
68608;SDS011;55581;46.718;7.690;2023-04-07T08:34:17;3.93;;;1.40;;
68608;SDS011;55581;46.718;7.690;2023-04-07T08:36:47;4.03;;;1.37;;
68608;SDS011;55581;46.718;7.690;2023-04-07T08:39:15;4.95;;;1.50;;
68608;SDS011;55581;46.718;7.690;2023-04-07T08:41:40;4.70;;;1.67;;
68608;SDS011;55581;46.718;7.690;2023-04-07T08:44:09;4.85;;;1.52;;
68608;SDS011;55581;46.718;7.690;2023-04-07T08:46:35;4.35;;;1.63;;
68608;SDS011;55581;46.718;7.690;2023-04-07T08:49:03;5.82;;;1.55;;
68608;SDS011;55581;46.718;7.690;2023-04-07T08:51:37;4.75;;;1.30;;
68608;SDS011;55581;46.718;7.690;2023-04-07T08:54:12;4.43;;;1.80;;
68608;SDS011;55581;46.718;7.690;2023-04-07T08:56:40;6.85;;;1.73;;
68608;SDS011;55581;46.718;7.690;2023-04-07T08:59:07;7.53;;;2.10;;
68608;SDS011;55581;46.718;7.690;2023-04-07T09:01:40;4.75;;;1.90;;
68608;SDS011;55581;46.718;7.690;2023-04-07T09:04:06;5.65;;;2.25;;
68608;SDS011;55581;46.718;7.690;2023-04-07T09:06:35;6.50;;;2.30;;
68608;SDS011;55581;46.718;7.690;2023-04-07T09:09:03;5.80;;;2.70;;
68608;SDS011;55581;46.718;7.690;2023-04-07T09:11:37;5.53;;;2.30;;
68608;SDS011;55581;46.718;7.690;2023-04-07T09:14:03;5.85;;;2.50;;
68608;SDS011;55581;46.718;7.690;2023-04-07T09:16:29;6.90;;;2.17;;
68608;SDS011;55581;46.718;7.690;2023-04-07T09:18:55;5.38;;;2.33;;
68608;SDS011;55581;46.718;7.690;2023-04-07T09:21:20;6.23;;;2.23;;
68608;SDS011;55581;46.718;7.690;2023-04-07T09:23:46;5.73;;;2.37;;
68608;SDS011;55581;46.718;7.690;2023-04-07T09:31:21;5.77;;;2.40;;
68608;SDS011;55581;46.718;7.690;2023-04-07T09:33:51;7.32;;;2.58;;
68608;SDS011;55581;46.718;7.690;2023-04-07T09:36:17;5.55;;;2.42;;
68608;SDS011;55581;46.718;7.690;2023-04-07T09:38:43;5.70;;;2.72;;
68608;SDS011;55581;46.718;7.690;2023-04-07T09:43:38;5.28;;;2.40;;
68608;SDS011;55581;46.718;7.690;2023-04-07T09:46:08;5.93;;;2.38;;
68608;SDS011;55581;46.718;7.690;2023-04-07T09:48:39;4.97;;;2.20;;
68608;SDS011;55581;46.718;7.690;2023-04-07T09:51:10;5.70;;;2.35;;
68608;SDS011;55581;46.718;7.690;2023-04-07T09:56:18;4.90;;;2.15;;
68608;SDS011;55581;46.718;7.690;2023-04-07T09:58:48;4.50;;;1.85;;
68608;SDS011;55581;46.718;7.690;2023-04-07T10:01:17;5.75;;;1.98;;
68608;SDS011;55581;46.718;7.690;2023-04-07T10:03:45;5.05;;;2.20;;
68608;SDS011;55581;46.718;7.690;2023-04-07T10:06:11;5.73;;;2.93;;
68608;SDS011;55581;46.718;7.690;2023-04-07T10:08:37;5.10;;;2.28;;
68608;SDS011;55581;46.718;7.690;2023-04-07T10:11:04;4.85;;;1.90;;
68608;SDS011;55581;46.718;7.690;2023-04-07T10:13:31;4.80;;;1.93;;
68608;SDS011;55581;46.718;7.690;2023-04-07T10:15:58;5.20;;;2.45;;
68608;SDS011;55581;46.718;7.690;2023-04-07T10:18:28;6.65;;;2.60;;
68608;SDS011;55581;46.718;7.690;2023-04-07T10:20:55;4.68;;;1.90;;
68608;SDS011;55581;46.718;7.690;2023-04-07T10:23:24;5.63;;;2.10;;
68608;SDS011;55581;46.718;7.690;2023-04-07T10:25:57;5.25;;;2.38;;
68608;SDS011;55581;46.718;7.690;2023-04-07T10:28:27;4.57;;;2.10;;
68608;SDS011;55581;46.718;7.690;2023-04-07T10:30:55;5.20;;;2.00;;
68608;SDS011;55581;46.718;7.690;2023-04-07T10:36:11;5.53;;;2.60;;
68608;SDS011;55581;46.718;7.690;2023-04-07T10:38:37;6.10;;;2.30;;
68608;SDS011;55581;46.718;7.690;2023-04-07T10:44:03;4.78;;;2.03;;
68608;SDS011;55581;46.718;7.690;2023-04-07T10:49:11;5.90;;;2.03;;
68608;SDS011;55581;46.718;7.690;2023-04-07T10:51:38;5.88;;;2.08;;
68608;SDS011;55581;46.718;7.690;2023-04-07T10:54:16;6.05;;;2.25;;
68608;SDS011;55581;46.718;7.690;2023-04-07T10:57:05;4.93;;;2.40;;
68608;SDS011;55581;46.718;7.690;2023-04-07T10:59:34;4.97;;;2.07;;
68608;SDS011;55581;46.718;7.690;2023-04-07T11:04:38;5.80;;;2.42;;
68608;SDS011;55581;46.718;7.690;2023-04-07T11:07:11;5.65;;;2.25;;
68608;SDS011;55581;46.718;7.690;2023-04-07T11:09:41;6.15;;;2.50;;
68608;SDS011;55581;46.718;7.690;2023-04-07T11:12:07;5.23;;;2.33;;
68608;SDS011;55581;46.718;7.690;2023-04-07T11:14:33;5.15;;;2.35;;
68608;SDS011;55581;46.718;7.690;2023-04-07T11:17:02;4.32;;;1.85;;
68608;SDS011;55581;46.718;7.690;2023-04-07T11:19:28;5.57;;;2.40;;
68608;SDS011;55581;46.718;7.690;2023-04-07T11:22:13;6.18;;;2.20;;
68608;SDS011;55581;46.718;7.690;2023-04-07T11:24:39;5.93;;;2.20;;
68608;SDS011;55581;46.718;7.690;2023-04-07T11:27:09;4.55;;;2.20;;
68608;SDS011;55581;46.718;7.690;2023-04-07T11:29:39;6.03;;;2.70;;
68608;SDS011;55581;46.718;7.690;2023-04-07T11:32:05;6.03;;;2.63;;
68608;SDS011;55581;46.718;7.690;2023-04-07T11:34:31;6.03;;;2.42;;
68608;SDS011;55581;46.718;7.690;2023-04-07T11:36:59;6.03;;;2.83;;
68608;SDS011;55581;46.718;7.690;2023-04-07T11:39:56;5.03;;;2.13;;
68608;SDS011;55581;46.718;7.690;2023-04-07T11:44:59;6.82;;;2.63;;
68608;SDS011;55581;46.718;7.690;2023-04-07T11:47:37;6.10;;;2.70;;
68608;SDS011;55581;46.718;7.690;2023-04-07T11:50:04;5.28;;;2.88;;
68608;SDS011;55581;46.718;7.690;2023-04-07T11:52:40;5.27;;;2.57;;
68608;SDS011;55581;46.718;7.690;2023-04-07T11:55:18;5.72;;;2.75;;
68608;SDS011;55581;46.718;7.690;2023-04-07T11:57:46;5.18;;;2.53;;
68608;SDS011;55581;46.718;7.690;2023-04-07T12:00:12;7.15;;;2.58;;
68608;SDS011;55581;46.718;7.690;2023-04-07T12:02:40;5.22;;;2.45;;
68608;SDS011;55581;46.718;7.690;2023-04-07T12:05:06;5.37;;;2.60;;
68608;SDS011;55581;46.718;7.690;2023-04-07T12:07:34;5.95;;;2.25;;
68608;SDS011;55581;46.718;7.690;2023-04-07T12:10:17;6.13;;;2.42;;
68608;SDS011;55581;46.718;7.690;2023-04-07T12:12:44;4.82;;;2.33;;
68608;SDS011;55581;46.718;7.690;2023-04-07T12:15:10;7.15;;;2.80;;
68608;SDS011;55581;46.718;7.690;2023-04-07T12:17:35;4.93;;;2.20;;
68608;SDS011;55581;46.718;7.690;2023-04-07T12:20:01;5.50;;;2.67;;
68608;SDS011;55581;46.718;7.690;2023-04-07T12:22:26;5.83;;;2.40;;
68608;SDS011;55581;46.718;7.690;2023-04-07T12:24:54;5.70;;;2.40;;
68608;SDS011;55581;46.718;7.690;2023-04-07T12:27:20;6.22;;;2.60;;
68608;SDS011;55581;46.718;7.690;2023-04-07T12:29:45;5.60;;;2.60;;
68608;SDS011;55581;46.718;7.690;2023-04-07T12:32:11;5.30;;;2.50;;
68608;SDS011;55581;46.718;7.690;2023-04-07T12:34:36;5.13;;;2.50;;
68608;SDS011;55581;46.718;7.690;2023-04-07T12:37:02;4.43;;;2.00;;
68608;SDS011;55581;46.718;7.690;2023-04-07T12:39:27;5.80;;;2.63;;
68608;SDS011;55581;46.718;7.690;2023-04-07T12:41:52;3.73;;;1.07;;
68608;SDS011;55581;46.718;7.690;2023-04-07T12:44:18;2.97;;;0.80;;
68608;SDS011;55581;46.718;7.690;2023-04-07T12:46:43;3.80;;;0.70;;
68608;SDS011;55581;46.718;7.690;2023-04-07T12:49:09;5.40;;;1.33;;
68608;SDS011;55581;46.718;7.690;2023-04-07T12:51:37;3.08;;;0.63;;
68608;SDS011;55581;46.718;7.690;2023-04-07T12:54:04;1.70;;;0.30;;
68608;SDS011;55581;46.718;7.690;2023-04-07T12:56:29;4.53;;;0.57;;
68608;SDS011;55581;46.718;7.690;2023-04-07T12:58:54;1.90;;;0.40;;
68608;SDS011;55581;46.718;7.690;2023-04-07T13:01:20;2.87;;;0.60;;
68608;SDS011;55581;46.718;7.690;2023-04-07T13:03:46;4.80;;;0.70;;
68608;SDS011;55581;46.718;7.690;2023-04-07T13:06:11;1.50;;;0.30;;
68608;SDS011;55581;46.718;7.690;2023-04-07T13:08:37;2.83;;;0.35;;
68608;SDS011;55581;46.718;7.690;2023-04-07T13:11:06;2.17;;;0.20;;
68608;SDS011;55581;46.718;7.690;2023-04-07T13:13:32;1.55;;;0.30;;
68608;SDS011;55581;46.718;7.690;2023-04-07T13:16:00;3.07;;;0.30;;
68608;SDS011;55581;46.718;7.690;2023-04-07T13:18:27;2.05;;;0.30;;
68608;SDS011;55581;46.718;7.690;2023-04-07T13:20:52;2.10;;;0.50;;
68608;SDS011;55581;46.718;7.690;2023-04-07T13:23:18;2.10;;;0.20;;
68608;SDS011;55581;46.718;7.690;2023-04-07T13:25:44;1.80;;;0.40;;
68608;SDS011;55581;46.718;7.690;2023-04-07T13:28:09;1.50;;;0.28;;
68608;SDS011;55581;46.718;7.690;2023-04-07T13:30:35;1.80;;;0.40;;
68608;SDS011;55581;46.718;7.690;2023-04-07T13:33:04;2.55;;;0.40;;
68608;SDS011;55581;46.718;7.690;2023-04-07T13:35:29;1.60;;;0.30;;
68608;SDS011;55581;46.718;7.690;2023-04-07T13:38:01;1.83;;;0.65;;
68608;SDS011;55581;46.718;7.690;2023-04-07T13:40:27;2.17;;;0.40;;
68608;SDS011;55581;46.718;7.690;2023-04-07T13:42:53;1.60;;;0.40;;
68608;SDS011;55581;46.718;7.690;2023-04-07T13:45:21;2.15;;;0.20;;
68608;SDS011;55581;46.718;7.690;2023-04-07T13:47:48;4.15;;;2.22;;
68608;SDS011;55581;46.718;7.690;2023-04-07T13:50:14;2.42;;;0.70;;
68608;SDS011;55581;46.718;7.690;2023-04-07T13:52:40;2.30;;;0.30;;
68608;SDS011;55581;46.718;7.690;2023-04-07T13:55:05;1.33;;;0.30;;
68608;SDS011;55581;46.718;7.690;2023-04-07T13:57:31;1.85;;;0.30;;
68608;SDS011;55581;46.718;7.690;2023-04-07T13:59:58;1.33;;;0.30;;
68608;SDS011;55581;46.718;7.690;2023-04-07T14:02:24;1.40;;;0.25;;
68608;SDS011;55581;46.718;7.690;2023-04-07T14:04:53;1.45;;;0.20;;
68608;SDS011;55581;46.718;7.690;2023-04-07T14:07:19;1.17;;;0.30;;
68608;SDS011;55581;46.718;7.690;2023-04-07T14:09:48;1.75;;;0.30;;
68608;SDS011;55581;46.718;7.690;2023-04-07T14:12:16;1.27;;;0.20;;
68608;SDS011;55581;46.718;7.690;2023-04-07T14:14:42;1.67;;;0.30;;
68608;SDS011;55581;46.718;7.690;2023-04-07T14:17:07;1.53;;;0.30;;
68608;SDS011;55581;46.718;7.690;2023-04-07T14:19:33;2.30;;;0.57;;
68608;SDS011;55581;46.718;7.690;2023-04-07T14:21:58;1.10;;;0.20;;
68608;SDS011;55581;46.718;7.690;2023-04-07T14:24:24;1.27;;;0.27;;
68608;SDS011;55581;46.718;7.690;2023-04-07T14:26:49;1.02;;;0.20;;
68608;SDS011;55581;46.718;7.690;2023-04-07T14:29:18;1.33;;;0.20;;
68608;SDS011;55581;46.718;7.690;2023-04-07T14:31:44;0.95;;;0.10;;
68608;SDS011;55581;46.718;7.690;2023-04-07T14:34:12;1.65;;;0.30;;
68608;SDS011;55581;46.718;7.690;2023-04-07T14:36:38;1.17;;;0.30;;
68608;SDS011;55581;46.718;7.690;2023-04-07T14:39:03;1.33;;;0.20;;
68608;SDS011;55581;46.718;7.690;2023-04-07T14:41:31;1.80;;;0.30;;
68608;SDS011;55581;46.718;7.690;2023-04-07T14:43:56;0.68;;;0.17;;
68608;SDS011;55581;46.718;7.690;2023-04-07T14:46:22;0.60;;;0.10;;
68608;SDS011;55581;46.718;7.690;2023-04-07T14:48:48;1.77;;;0.10;;
68608;SDS011;55581;46.718;7.690;2023-04-07T14:51:16;1.45;;;0.20;;
68608;SDS011;55581;46.718;7.690;2023-04-07T14:53:42;0.93;;;0.10;;
68608;SDS011;55581;46.718;7.690;2023-04-07T14:56:11;0.77;;;0.10;;
68608;SDS011;55581;46.718;7.690;2023-04-07T14:58:37;1.02;;;0.10;;
68608;SDS011;55581;46.718;7.690;2023-04-07T15:01:04;1.10;;;0.20;;
68608;SDS011;55581;46.718;7.690;2023-04-07T15:03:32;1.25;;;0.10;;
68608;SDS011;55581;46.718;7.690;2023-04-07T15:06:05;1.00;;;0.20;;
68608;SDS011;55581;46.718;7.690;2023-04-07T15:08:32;1.00;;;0.20;;
68608;SDS011;55581;46.718;7.690;2023-04-07T15:10:57;0.82;;;0.10;;
68608;SDS011;55581;46.718;7.690;2023-04-07T15:13:23;1.30;;;0.10;;
68608;SDS011;55581;46.718;7.690;2023-04-07T15:15:48;0.70;;;0.13;;
68608;SDS011;55581;46.718;7.690;2023-04-07T15:18:16;3.15;;;1.02;;
68608;SDS011;55581;46.718;7.690;2023-04-07T15:20:42;3.27;;;0.87;;
68608;SDS011;55581;46.718;7.690;2023-04-07T15:23:07;26.63;;;12.10;;